sensor_id;sensor_type;location;lat;lon;timestamp;P1;durP1;ratioP1;P2;durP2;ratioP2
438;SDS011;206;48.782;9.252;2022-09-24T00:01:19;12.93;;;10.43;;
438;SDS011;206;48.782;9.252;2022-09-24T00:03:51;12.77;;;11.37;;
438;SDS011;206;48.782;9.252;2022-09-24T00:06:18;10.90;;;9.70;;
438;SDS011;206;48.782;9.252;2022-09-24T00:08:45;13.43;;;10.87;;
438;SDS011;206;48.782;9.252;2022-09-24T00:11:13;12.87;;;9.80;;
438;SDS011;206;48.782;9.252;2022-09-24T00:13:39;10.50;;;9.97;;
438;SDS011;206;48.782;9.252;2022-09-24T00:16:06;12.13;;;11.00;;
438;SDS011;206;48.782;9.252;2022-09-24T00:18:34;12.27;;;10.47;;
438;SDS011;206;48.782;9.252;2022-09-24T00:21:00;12.80;;;10.97;;
438;SDS011;206;48.782;9.252;2022-09-24T00:23:48;12.30;;;10.80;;
438;SDS011;206;48.782;9.252;2022-09-24T00:26:16;14.73;;;10.50;;
438;SDS011;206;48.782;9.252;2022-09-24T00:29:01;18.13;;;12.90;;
438;SDS011;206;48.782;9.252;2022-09-24T00:31:27;12.00;;;10.40;;
438;SDS011;206;48.782;9.252;2022-09-24T00:33:53;12.03;;;10.67;;
438;SDS011;206;48.782;9.252;2022-09-24T00:36:20;14.70;;;10.33;;
438;SDS011;206;48.782;9.252;2022-09-24T00:38:53;14.97;;;11.53;;
438;SDS011;206;48.782;9.252;2022-09-24T00:41:20;11.13;;;10.17;;
438;SDS011;206;48.782;9.252;2022-09-24T00:43:48;10.80;;;10.20;;
438;SDS011;206;48.782;9.252;2022-09-24T00:46:15;16.43;;;11.20;;
438;SDS011;206;48.782;9.252;2022-09-24T00:48:42;14.30;;;10.90;;
438;SDS011;206;48.782;9.252;2022-09-24T00:51:10;15.20;;;10.40;;
438;SDS011;206;48.782;9.252;2022-09-24T00:53:39;10.80;;;10.10;;
438;SDS011;206;48.782;9.252;2022-09-24T00:56:05;12.53;;;11.27;;
438;SDS011;206;48.782;9.252;2022-09-24T00:58:34;14.60;;;11.20;;
438;SDS011;206;48.782;9.252;2022-09-24T01:01:03;13.80;;;10.90;;
438;SDS011;206;48.782;9.252;2022-09-24T01:03:30;12.70;;;10.90;;
438;SDS011;206;48.782;9.252;2022-09-24T01:05:59;12.60;;;9.60;;
438;SDS011;206;48.782;9.252;2022-09-24T01:08:25;11.60;;;11.00;;
438;SDS011;206;48.782;9.252;2022-09-24T01:11:06;15.90;;;11.47;;
438;SDS011;206;48.782;9.252;2022-09-24T01:21:34;11.30;;;10.70;;
438;SDS011;206;48.782;9.252;2022-09-24T01:30:09;10.37;;;9.87;;
438;SDS011;206;48.782;9.252;2022-09-24T01:32:40;16.23;;;10.70;;
438;SDS011;206;48.782;9.252;2022-09-24T01:35:21;13.90;;;10.93;;
438;SDS011;206;48.782;9.252;2022-09-24T01:38:03;10.97;;;10.40;;
438;SDS011;206;48.782;9.252;2022-09-24T01:40:33;11.17;;;10.57;;
438;SDS011;206;48.782;9.252;2022-09-24T01:43:01;15.80;;;11.00;;
438;SDS011;206;48.782;9.252;2022-09-24T01:45:29;11.33;;;10.73;;
438;SDS011;206;48.782;9.252;2022-09-24T01:48:00;12.33;;;10.47;;
438;SDS011;206;48.782;9.252;2022-09-24T01:50:27;12.00;;;11.40;;
438;SDS011;206;48.782;9.252;2022-09-24T01:53:01;15.50;;;11.23;;
438;SDS011;206;48.782;9.252;2022-09-24T01:55:48;19.60;;;11.67;;
438;SDS011;206;48.782;9.252;2022-09-24T01:58:20;15.37;;;10.17;;
438;SDS011;206;48.782;9.252;2022-09-24T02:00:52;11.77;;;10.13;;
438;SDS011;206;48.782;9.252;2022-09-24T02:03:30;13.13;;;11.53;;
438;SDS011;206;48.782;9.252;2022-09-24T02:06:12;14.70;;;11.43;;
438;SDS011;206;48.782;9.252;2022-09-24T02:08:42;12.73;;;11.80;;
438;SDS011;206;48.782;9.252;2022-09-24T02:11:11;12.17;;;11.57;;
438;SDS011;206;48.782;9.252;2022-09-24T02:13:42;18.57;;;14.13;;
438;SDS011;206;48.782;9.252;2022-09-24T02:16:11;14.50;;;12.20;;
438;SDS011;206;48.782;9.252;2022-09-24T02:18:41;16.93;;;10.97;;
438;SDS011;206;48.782;9.252;2022-09-24T02:21:12;12.17;;;11.33;;
438;SDS011;206;48.782;9.252;2022-09-24T02:23:40;14.43;;;11.47;;
438;SDS011;206;48.782;9.252;2022-09-24T02:26:13;15.03;;;10.30;;
438;SDS011;206;48.782;9.252;2022-09-24T02:28:39;13.50;;;12.30;;
438;SDS011;206;48.782;9.252;2022-09-24T02:31:19;11.63;;;10.77;;
438;SDS011;206;48.782;9.252;2022-09-24T02:33:51;12.67;;;11.53;;
438;SDS011;206;48.782;9.252;2022-09-24T02:36:36;11.93;;;11.40;;
438;SDS011;206;48.782;9.252;2022-09-24T02:39:02;12.67;;;10.60;;
438;SDS011;206;48.782;9.252;2022-09-24T02:41:28;11.03;;;10.30;;
438;SDS011;206;48.782;9.252;2022-09-24T02:43:56;13.83;;;13.13;;
438;SDS011;206;48.782;9.252;2022-09-24T02:46:22;12.27;;;9.90;;
438;SDS011;206;48.782;9.252;2022-09-24T02:48:48;12.47;;;9.77;;
438;SDS011;206;48.782;9.252;2022-09-24T02:51:14;12.00;;;11.20;;
438;SDS011;206;48.782;9.252;2022-09-24T02:53:39;11.90;;;10.70;;
438;SDS011;206;48.782;9.252;2022-09-24T02:56:05;11.70;;;10.93;;
438;SDS011;206;48.782;9.252;2022-09-24T02:58:32;11.80;;;9.93;;
438;SDS011;206;48.782;9.252;2022-09-24T03:00:58;12.27;;;10.43;;
438;SDS011;206;48.782;9.252;2022-09-24T03:03:24;10.90;;;9.60;;
438;SDS011;206;48.782;9.252;2022-09-24T03:05:50;12.73;;;11.30;;
438;SDS011;206;48.782;9.252;2022-09-24T03:08:22;14.87;;;11.43;;
438;SDS011;206;48.782;9.252;2022-09-24T03:10:48;13.43;;;9.80;;
438;SDS011;206;48.782;9.252;2022-09-24T03:13:15;12.00;;;11.40;;
438;SDS011;206;48.782;9.252;2022-09-24T03:15:44;14.97;;;10.83;;
438;SDS011;206;48.782;9.252;2022-09-24T03:18:10;12.53;;;10.70;;
438;SDS011;206;48.782;9.252;2022-09-24T03:20:35;15.13;;;10.67;;
438;SDS011;206;48.782;9.252;2022-09-24T03:23:01;11.10;;;10.50;;
438;SDS011;206;48.782;9.252;2022-09-24T03:25:27;11.90;;;11.30;;
438;SDS011;206;48.782;9.252;2022-09-24T03:27:52;9.87;;;9.33;;
438;SDS011;206;48.782;9.252;2022-09-24T03:30:18;12.43;;;11.30;;
438;SDS011;206;48.782;9.252;2022-09-24T03:33:02;13.07;;;11.77;;
438;SDS011;206;48.782;9.252;2022-09-24T03:35:27;13.23;;;11.57;;
438;SDS011;206;48.782;9.252;2022-09-24T03:37:53;11.50;;;10.90;;
438;SDS011;206;48.782;9.252;2022-09-24T03:40:19;11.83;;;10.23;;
438;SDS011;206;48.782;9.252;2022-09-24T03:42:44;10.50;;;9.90;;
438;SDS011;206;48.782;9.252;2022-09-24T03:45:10;14.10;;;10.47;;
438;SDS011;206;48.782;9.252;2022-09-24T03:47:35;13.17;;;9.97;;
438;SDS011;206;48.782;9.252;2022-09-24T03:50:01;16.40;;;9.70;;
438;SDS011;206;48.782;9.252;2022-09-24T03:52:27;11.30;;;10.70;;
438;SDS011;206;48.782;9.252;2022-09-24T03:54:53;10.77;;;10.17;;
438;SDS011;206;48.782;9.252;2022-09-24T03:57:19;10.03;;;9.50;;
438;SDS011;206;48.782;9.252;2022-09-24T03:59:45;11.17;;;10.57;;
438;SDS011;206;48.782;9.252;2022-09-24T04:02:11;14.10;;;11.50;;
438;SDS011;206;48.782;9.252;2022-09-24T04:04:37;11.93;;;10.07;;
438;SDS011;206;48.782;9.252;2022-09-24T04:07:03;10.80;;;10.20;;
438;SDS011;206;48.782;9.252;2022-09-24T04:09:29;15.13;;;11.33;;
438;SDS011;206;48.782;9.252;2022-09-24T04:11:55;13.23;;;10.23;;
438;SDS011;206;48.782;9.252;2022-09-24T04:14:21;16.00;;;10.90;;
438;SDS011;206;48.782;9.252;2022-09-24T04:16:47;11.20;;;10.60;;
438;SDS011;206;48.782;9.252;2022-09-24T04:19:13;11.57;;;10.97;;
438;SDS011;206;48.782;9.252;2022-09-24T04:21:42;12.60;;;10.70;;
438;SDS011;206;48.782;9.252;2022-09-24T04:24:09;14.23;;;11.63;;
438;SDS011;206;48.782;9.252;2022-09-24T04:26:35;10.97;;;10.37;;
438;SDS011;206;48.782;9.252;2022-09-24T04:29:01;12.40;;;11.20;;
438;SDS011;206;48.782;9.252;2022-09-24T04:31:27;12.13;;;11.53;;
438;SDS011;206;48.782;9.252;2022-09-24T04:33:52;13.37;;;11.57;;
438;SDS011;206;48.782;9.252;2022-09-24T04:36:18;10.73;;;9.33;;
438;SDS011;206;48.782;9.252;2022-09-24T04:38:44;17.70;;;11.23;;
438;SDS011;206;48.782;9.252;2022-09-24T04:41:10;13.03;;;9.20;;
438;SDS011;206;48.782;9.252;2022-09-24T04:43:36;10.97;;;10.40;;
438;SDS011;206;48.782;9.252;2022-09-24T04:46:02;10.60;;;10.00;;
438;SDS011;206;48.782;9.252;2022-09-24T04:48:29;11.13;;;10.53;;
438;SDS011;206;48.782;9.252;2022-09-24T04:50:55;15.00;;;9.53;;
438;SDS011;206;48.782;9.252;2022-09-24T04:53:21;10.90;;;10.20;;
438;SDS011;206;48.782;9.252;2022-09-24T04:55:47;10.40;;;9.87;;
438;SDS011;206;48.782;9.252;2022-09-24T04:58:13;10.83;;;10.23;;
438;SDS011;206;48.782;9.252;2022-09-24T05:00:39;12.33;;;10.47;;
438;SDS011;206;48.782;9.252;2022-09-24T05:03:07;10.03;;;9.53;;
438;SDS011;206;48.782;9.252;2022-09-24T05:05:33;11.10;;;10.60;;
438;SDS011;206;48.782;9.252;2022-09-24T05:08:00;11.40;;;10.80;;
438;SDS011;206;48.782;9.252;2022-09-24T05:10:26;12.43;;;11.80;;
438;SDS011;206;48.782;9.252;2022-09-24T05:12:53;11.40;;;10.80;;
438;SDS011;206;48.782;9.252;2022-09-24T05:15:19;13.87;;;11.70;;
438;SDS011;206;48.782;9.252;2022-09-24T05:17:45;17.33;;;11.37;;
438;SDS011;206;48.782;9.252;2022-09-24T05:20:11;10.73;;;10.13;;
438;SDS011;206;48.782;9.252;2022-09-24T05:22:41;12.60;;;11.27;;
438;SDS011;206;48.782;9.252;2022-09-24T05:25:08;13.73;;;11.17;;
438;SDS011;206;48.782;9.252;2022-09-24T05:27:34;11.63;;;10.33;;
438;SDS011;206;48.782;9.252;2022-09-24T05:30:00;12.43;;;11.80;;
438;SDS011;206;48.782;9.252;2022-09-24T05:32:26;11.57;;;10.10;;
438;SDS011;206;48.782;9.252;2022-09-24T05:34:51;14.00;;;10.87;;
438;SDS011;206;48.782;9.252;2022-09-24T05:37:18;14.10;;;10.80;;
438;SDS011;206;48.782;9.252;2022-09-24T05:39:43;14.50;;;10.07;;
438;SDS011;206;48.782;9.252;2022-09-24T05:42:09;12.53;;;11.33;;
438;SDS011;206;48.782;9.252;2022-09-24T05:44:39;11.10;;;10.50;;
438;SDS011;206;48.782;9.252;2022-09-24T05:47:05;15.33;;;10.57;;
438;SDS011;206;48.782;9.252;2022-09-24T05:49:30;10.80;;;10.20;;
438;SDS011;206;48.782;9.252;2022-09-24T05:51:56;15.03;;;11.00;;
438;SDS011;206;48.782;9.252;2022-09-24T05:54:21;17.40;;;10.33;;
438;SDS011;206;48.782;9.252;2022-09-24T05:56:47;9.80;;;9.30;;
438;SDS011;206;48.782;9.252;2022-09-24T05:59:13;10.03;;;9.53;;
438;SDS011;206;48.782;9.252;2022-09-24T06:01:38;11.03;;;10.43;;
438;SDS011;206;48.782;9.252;2022-09-24T06:04:04;10.00;;;9.53;;
438;SDS011;206;48.782;9.252;2022-09-24T06:06:30;13.90;;;11.50;;
438;SDS011;206;48.782;9.252;2022-09-24T06:08:55;10.80;;;10.13;;
438;SDS011;206;48.782;9.252;2022-09-24T06:11:21;10.73;;;10.13;;
438;SDS011;206;48.782;9.252;2022-09-24T06:13:47;9.50;;;9.00;;
438;SDS011;206;48.782;9.252;2022-09-24T06:16:15;10.07;;;9.47;;
438;SDS011;206;48.782;9.252;2022-09-24T06:18:41;9.00;;;8.50;;
438;SDS011;206;48.782;9.252;2022-09-24T06:21:12;11.07;;;8.97;;
438;SDS011;206;48.782;9.252;2022-09-24T06:23:39;9.27;;;8.77;;
438;SDS011;206;48.782;9.252;2022-09-24T06:26:06;8.80;;;8.20;;
438;SDS011;206;48.782;9.252;2022-09-24T06:28:33;11.53;;;10.03;;
438;SDS011;206;48.782;9.252;2022-09-24T06:30:59;9.77;;;9.30;;
438;SDS011;206;48.782;9.252;2022-09-24T06:33:25;12.03;;;8.73;;
438;SDS011;206;48.782;9.252;2022-09-24T06:35:51;13.03;;;11.60;;
438;SDS011;206;48.782;9.252;2022-09-24T06:38:17;9.20;;;8.70;;
438;SDS011;206;48.782;9.252;2022-09-24T06:40:44;13.93;;;9.07;;
438;SDS011;206;48.782;9.252;2022-09-24T06:43:11;10.33;;;8.60;;
438;SDS011;206;48.782;9.252;2022-09-24T06:45:37;12.87;;;8.80;;
438;SDS011;206;48.782;9.252;2022-09-24T06:48:04;14.03;;;9.57;;
438;SDS011;206;48.782;9.252;2022-09-24T06:50:31;10.13;;;9.43;;
438;SDS011;206;48.782;9.252;2022-09-24T06:52:58;12.00;;;9.60;;
438;SDS011;206;48.782;9.252;2022-09-24T06:55:24;13.80;;;11.40;;
438;SDS011;206;48.782;9.252;2022-09-24T06:57:49;9.40;;;8.80;;
438;SDS011;206;48.782;9.252;2022-09-24T07:00:24;9.80;;;9.00;;
438;SDS011;206;48.782;9.252;2022-09-24T07:02:50;8.90;;;8.40;;
438;SDS011;206;48.782;9.252;2022-09-24T07:05:16;12.53;;;9.80;;
438;SDS011;206;48.782;9.252;2022-09-24T07:07:41;10.00;;;9.50;;
438;SDS011;206;48.782;9.252;2022-09-24T07:10:07;10.20;;;8.93;;
438;SDS011;206;48.782;9.252;2022-09-24T07:12:34;10.00;;;8.83;;
438;SDS011;206;48.782;9.252;2022-09-24T07:15:00;10.40;;;8.70;;
438;SDS011;206;48.782;9.252;2022-09-24T07:17:27;8.77;;;8.27;;
438;SDS011;206;48.782;9.252;2022-09-24T07:19:53;10.80;;;9.70;;
438;SDS011;206;48.782;9.252;2022-09-24T07:22:20;9.40;;;8.90;;
438;SDS011;206;48.782;9.252;2022-09-24T07:24:46;9.90;;;7.73;;
438;SDS011;206;48.782;9.252;2022-09-24T07:27:12;9.20;;;8.70;;
438;SDS011;206;48.782;9.252;2022-09-24T07:29:38;12.33;;;9.70;;
438;SDS011;206;48.782;9.252;2022-09-24T07:32:04;12.23;;;9.60;;
438;SDS011;206;48.782;9.252;2022-09-24T07:34:30;13.80;;;7.57;;
438;SDS011;206;48.782;9.252;2022-09-24T07:36:56;16.70;;;10.00;;
438;SDS011;206;48.782;9.252;2022-09-24T07:39:22;8.90;;;8.40;;
438;SDS011;206;48.782;9.252;2022-09-24T07:41:48;9.70;;;9.20;;
438;SDS011;206;48.782;9.252;2022-09-24T07:44:16;11.43;;;9.03;;
438;SDS011;206;48.782;9.252;2022-09-24T07:46:48;9.03;;;8.63;;
438;SDS011;206;48.782;9.252;2022-09-24T07:49:14;9.30;;;8.80;;
438;SDS011;206;48.782;9.252;2022-09-24T07:51:40;10.23;;;9.17;;
438;SDS011;206;48.782;9.252;2022-09-24T07:54:06;10.57;;;10.00;;
438;SDS011;206;48.782;9.252;2022-09-24T07:56:31;9.17;;;8.67;;
438;SDS011;206;48.782;9.252;2022-09-24T07:58:57;10.50;;;9.10;;
438;SDS011;206;48.782;9.252;2022-09-24T08:01:23;11.53;;;8.60;;
438;SDS011;206;48.782;9.252;2022-09-24T08:03:50;9.53;;;8.43;;
438;SDS011;206;48.782;9.252;2022-09-24T08:06:16;8.90;;;8.40;;
438;SDS011;206;48.782;9.252;2022-09-24T08:08:42;10.50;;;8.53;;
438;SDS011;206;48.782;9.252;2022-09-24T08:11:10;10.27;;;8.60;;
438;SDS011;206;48.782;9.252;2022-09-24T08:13:37;10.03;;;8.60;;
438;SDS011;206;48.782;9.252;2022-09-24T08:16:03;8.60;;;8.10;;
438;SDS011;206;48.782;9.252;2022-09-24T08:18:30;8.80;;;8.30;;
438;SDS011;206;48.782;9.252;2022-09-24T08:21:06;10.00;;;9.50;;
438;SDS011;206;48.782;9.252;2022-09-24T08:23:35;8.93;;;8.43;;
438;SDS011;206;48.782;9.252;2022-09-24T08:26:01;11.10;;;8.60;;
438;SDS011;206;48.782;9.252;2022-09-24T08:28:28;11.53;;;9.20;;
438;SDS011;206;48.782;9.252;2022-09-24T08:31:00;9.67;;;7.80;;
438;SDS011;206;48.782;9.252;2022-09-24T08:33:28;10.77;;;8.20;;
438;SDS011;206;48.782;9.252;2022-09-24T08:35:57;11.03;;;9.67;;
438;SDS011;206;48.782;9.252;2022-09-24T08:38:24;14.30;;;9.93;;
438;SDS011;206;48.782;9.252;2022-09-24T08:41:02;11.60;;;9.97;;
438;SDS011;206;48.782;9.252;2022-09-24T08:49:14;16.53;;;10.43;;
438;SDS011;206;48.782;9.252;2022-09-24T08:51:46;11.57;;;10.97;;
438;SDS011;206;48.782;9.252;2022-09-24T08:54:44;12.00;;;8.43;;
438;SDS011;206;48.782;9.252;2022-09-24T08:57:11;13.57;;;10.27;;
438;SDS011;206;48.782;9.252;2022-09-24T08:59:40;9.60;;;9.10;;
438;SDS011;206;48.782;9.252;2022-09-24T09:07:39;9.87;;;7.90;;
438;SDS011;206;48.782;9.252;2022-09-24T09:10:23;9.07;;;8.57;;
438;SDS011;206;48.782;9.252;2022-09-24T09:12:58;7.47;;;6.33;;
438;SDS011;206;48.782;9.252;2022-09-24T09:15:32;7.73;;;7.13;;
438;SDS011;206;48.782;9.252;2022-09-24T09:18:03;7.03;;;6.63;;
438;SDS011;206;48.782;9.252;2022-09-24T09:20:47;12.60;;;8.97;;
438;SDS011;206;48.782;9.252;2022-09-24T09:25:50;8.43;;;6.37;;
438;SDS011;206;48.782;9.252;2022-09-24T09:28:20;6.63;;;6.23;;
438;SDS011;206;48.782;9.252;2022-09-24T09:30:58;6.70;;;5.77;;
438;SDS011;206;48.782;9.252;2022-09-24T09:42:12;10.23;;;6.10;;
438;SDS011;206;48.782;9.252;2022-09-24T09:45:29;7.10;;;5.97;;
438;SDS011;206;48.782;9.252;2022-09-24T09:48:03;10.90;;;6.40;;
438;SDS011;206;48.782;9.252;2022-09-24T09:53:26;10.03;;;5.17;;
438;SDS011;206;48.782;9.252;2022-09-24T09:55:56;5.00;;;4.63;;
438;SDS011;206;48.782;9.252;2022-09-24T09:58:27;3.43;;;3.00;;
438;SDS011;206;48.782;9.252;2022-09-24T10:01:02;3.07;;;2.83;;
438;SDS011;206;48.782;9.252;2022-09-24T10:03:31;4.27;;;3.20;;
438;SDS011;206;48.782;9.252;2022-09-24T10:05:59;2.70;;;2.57;;
438;SDS011;206;48.782;9.252;2022-09-24T10:08:27;3.03;;;2.80;;
438;SDS011;206;48.782;9.252;2022-09-24T10:10:54;3.33;;;2.87;;
438;SDS011;206;48.782;9.252;2022-09-24T10:13:20;2.60;;;2.40;;
438;SDS011;206;48.782;9.252;2022-09-24T10:15:47;4.47;;;3.03;;
438;SDS011;206;48.782;9.252;2022-09-24T10:18:15;3.77;;;3.60;;
438;SDS011;206;48.782;9.252;2022-09-24T10:20:47;4.10;;;3.77;;
438;SDS011;206;48.782;9.252;2022-09-24T10:23:23;5.37;;;4.50;;
438;SDS011;206;48.782;9.252;2022-09-24T10:25:59;6.30;;;4.30;;
438;SDS011;206;48.782;9.252;2022-09-24T10:28:26;3.93;;;3.50;;
438;SDS011;206;48.782;9.252;2022-09-24T10:31:22;10.60;;;4.33;;
438;SDS011;206;48.782;9.252;2022-09-24T10:33:52;3.47;;;3.03;;
438;SDS011;206;48.782;9.252;2022-09-24T10:36:22;3.90;;;3.70;;
438;SDS011;206;48.782;9.252;2022-09-24T10:39:00;4.30;;;4.00;;
438;SDS011;206;48.782;9.252;2022-09-24T10:41:36;5.60;;;4.70;;
438;SDS011;206;48.782;9.252;2022-09-24T10:44:09;4.00;;;3.80;;
438;SDS011;206;48.782;9.252;2022-09-24T10:49:38;4.80;;;4.10;;
438;SDS011;206;48.782;9.252;2022-09-24T11:00:34;4.10;;;3.70;;
438;SDS011;206;48.782;9.252;2022-09-24T11:05:49;3.60;;;3.40;;
438;SDS011;206;48.782;9.252;2022-09-24T11:08:46;4.07;;;3.67;;
438;SDS011;206;48.782;9.252;2022-09-24T11:11:58;3.27;;;3.07;;
438;SDS011;206;48.782;9.252;2022-09-24T11:14:23;6.40;;;3.77;;
438;SDS011;206;48.782;9.252;2022-09-24T11:28:26;8.63;;;5.23;;
438;SDS011;206;48.782;9.252;2022-09-24T11:31:24;6.23;;;4.30;;
438;SDS011;206;48.782;9.252;2022-09-24T11:36:59;4.00;;;3.30;;
438;SDS011;206;48.782;9.252;2022-09-24T11:39:39;5.20;;;3.50;;
438;SDS011;206;48.782;9.252;2022-09-24T11:42:30;3.00;;;2.87;;
438;SDS011;206;48.782;9.252;2022-09-24T11:48:22;3.17;;;2.97;;
438;SDS011;206;48.782;9.252;2022-09-24T11:51:00;3.70;;;2.70;;
438;SDS011;206;48.782;9.252;2022-09-24T11:56:27;4.20;;;3.20;;
438;SDS011;206;48.782;9.252;2022-09-24T11:59:19;2.83;;;2.67;;
438;SDS011;206;48.782;9.252;2022-09-24T12:02:04;2.57;;;2.37;;
438;SDS011;206;48.782;9.252;2022-09-24T12:04:52;3.53;;;3.33;;
438;SDS011;206;48.782;9.252;2022-09-24T12:07:26;6.33;;;4.30;;
438;SDS011;206;48.782;9.252;2022-09-24T12:09:58;4.33;;;4.03;;
438;SDS011;206;48.782;9.252;2022-09-24T12:12:31;5.50;;;3.63;;
438;SDS011;206;48.782;9.252;2022-09-24T12:17:48;5.50;;;3.40;;
438;SDS011;206;48.782;9.252;2022-09-24T12:20:25;4.57;;;3.20;;
438;SDS011;206;48.782;9.252;2022-09-24T12:22:53;3.80;;;3.57;;
438;SDS011;206;48.782;9.252;2022-09-24T12:25:36;4.80;;;3.13;;
438;SDS011;206;48.782;9.252;2022-09-24T12:28:05;4.33;;;3.47;;
438;SDS011;206;48.782;9.252;2022-09-24T12:30:39;4.30;;;3.80;;
438;SDS011;206;48.782;9.252;2022-09-24T12:33:44;3.90;;;3.77;;
438;SDS011;206;48.782;9.252;2022-09-24T12:36:31;5.73;;;3.20;;
438;SDS011;206;48.782;9.252;2022-09-24T12:39:19;3.70;;;3.20;;
438;SDS011;206;48.782;9.252;2022-09-24T12:41:48;4.10;;;3.83;;
438;SDS011;206;48.782;9.252;2022-09-24T12:47:14;3.87;;;3.63;;
438;SDS011;206;48.782;9.252;2022-09-24T12:49:46;6.30;;;4.60;;
438;SDS011;206;48.782;9.252;2022-09-24T12:52:23;4.80;;;4.50;;
438;SDS011;206;48.782;9.252;2022-09-24T12:54:55;4.20;;;3.37;;
438;SDS011;206;48.782;9.252;2022-09-24T12:57:28;5.50;;;4.37;;
438;SDS011;206;48.782;9.252;2022-09-24T13:03:03;4.33;;;4.10;;
438;SDS011;206;48.782;9.252;2022-09-24T13:10:55;5.00;;;4.70;;
438;SDS011;206;48.782;9.252;2022-09-24T13:13:30;6.03;;;5.00;;
438;SDS011;206;48.782;9.252;2022-09-24T13:18:29;6.20;;;4.97;;
438;SDS011;206;48.782;9.252;2022-09-24T13:20:59;4.30;;;4.00;;
438;SDS011;206;48.782;9.252;2022-09-24T13:23:41;4.50;;;3.97;;
438;SDS011;206;48.782;9.252;2022-09-24T13:26:52;5.47;;;5.10;;
438;SDS011;206;48.782;9.252;2022-09-24T13:28:59;5.10;;;4.80;;
438;SDS011;206;48.782;9.252;2022-09-24T13:33:57;4.47;;;4.10;;
438;SDS011;206;48.782;9.252;2022-09-24T13:37:08;5.30;;;5.00;;
438;SDS011;206;48.782;9.252;2022-09-24T13:39:44;4.97;;;4.70;;
438;SDS011;206;48.782;9.252;2022-09-24T13:45:21;5.40;;;5.10;;
438;SDS011;206;48.782;9.252;2022-09-24T13:48:01;5.20;;;4.90;;
438;SDS011;206;48.782;9.252;2022-09-24T13:50:30;4.90;;;4.10;;
438;SDS011;206;48.782;9.252;2022-09-24T13:53:32;5.50;;;4.57;;
438;SDS011;206;48.782;9.252;2022-09-24T13:56:10;5.37;;;5.07;;
438;SDS011;206;48.782;9.252;2022-09-24T13:58:42;7.77;;;7.33;;
438;SDS011;206;48.782;9.252;2022-09-24T14:04:06;5.07;;;4.77;;
438;SDS011;206;48.782;9.252;2022-09-24T14:06:44;5.97;;;5.67;;
438;SDS011;206;48.782;9.252;2022-09-24T14:11:58;5.00;;;4.70;;
438;SDS011;206;48.782;9.252;2022-09-24T14:14:43;7.13;;;6.00;;
438;SDS011;206;48.782;9.252;2022-09-24T14:17:12;5.60;;;5.30;;
438;SDS011;206;48.782;9.252;2022-09-24T14:19:38;6.97;;;6.27;;
438;SDS011;206;48.782;9.252;2022-09-24T14:22:05;6.13;;;5.83;;
438;SDS011;206;48.782;9.252;2022-09-24T14:24:54;5.70;;;5.43;;
438;SDS011;206;48.782;9.252;2022-09-24T14:27:26;6.23;;;5.90;;
438;SDS011;206;48.782;9.252;2022-09-24T14:29:56;7.93;;;5.80;;
438;SDS011;206;48.782;9.252;2022-09-24T14:32:32;7.23;;;5.80;;
438;SDS011;206;48.782;9.252;2022-09-24T14:35:03;5.70;;;5.40;;
438;SDS011;206;48.782;9.252;2022-09-24T14:37:32;6.33;;;4.70;;
438;SDS011;206;48.782;9.252;2022-09-24T14:40:05;4.70;;;4.07;;
438;SDS011;206;48.782;9.252;2022-09-24T14:42:37;5.47;;;4.47;;
438;SDS011;206;48.782;9.252;2022-09-24T14:45:08;4.80;;;4.50;;
438;SDS011;206;48.782;9.252;2022-09-24T14:47:40;4.90;;;4.60;;
438;SDS011;206;48.782;9.252;2022-09-24T14:50:23;5.00;;;4.70;;
438;SDS011;206;48.782;9.252;2022-09-24T14:55:59;5.17;;;4.87;;
438;SDS011;206;48.782;9.252;2022-09-24T14:58:45;10.67;;;5.70;;
438;SDS011;206;48.782;9.252;2022-09-24T15:01:14;7.73;;;6.03;;
438;SDS011;206;48.782;9.252;2022-09-24T15:03:43;5.67;;;5.37;;
438;SDS011;206;48.782;9.252;2022-09-24T15:06:22;9.60;;;5.90;;
438;SDS011;206;48.782;9.252;2022-09-24T15:08:51;7.60;;;7.20;;
438;SDS011;206;48.782;9.252;2022-09-24T15:11:19;5.63;;;5.33;;
438;SDS011;206;48.782;9.252;2022-09-24T15:14:02;5.47;;;5.17;;
438;SDS011;206;48.782;9.252;2022-09-24T15:16:43;6.33;;;5.97;;
438;SDS011;206;48.782;9.252;2022-09-24T15:21:41;7.60;;;5.57;;
438;SDS011;206;48.782;9.252;2022-09-24T15:24:08;6.20;;;5.90;;
438;SDS011;206;48.782;9.252;2022-09-24T15:26:34;6.27;;;5.80;;
438;SDS011;206;48.782;9.252;2022-09-24T15:29:01;5.80;;;5.50;;
438;SDS011;206;48.782;9.252;2022-09-24T15:31:27;6.60;;;6.20;;
438;SDS011;206;48.782;9.252;2022-09-24T15:33:53;5.40;;;5.07;;
438;SDS011;206;48.782;9.252;2022-09-24T15:36:20;7.83;;;5.40;;
438;SDS011;206;48.782;9.252;2022-09-24T15:38:47;7.03;;;6.00;;
438;SDS011;206;48.782;9.252;2022-09-24T15:41:15;5.30;;;5.00;;
438;SDS011;206;48.782;9.252;2022-09-24T15:43:40;5.13;;;4.83;;
438;SDS011;206;48.782;9.252;2022-09-24T15:46:06;6.77;;;6.40;;
438;SDS011;206;48.782;9.252;2022-09-24T15:48:32;7.40;;;5.67;;
438;SDS011;206;48.782;9.252;2022-09-24T15:50:57;6.13;;;5.70;;
438;SDS011;206;48.782;9.252;2022-09-24T15:53:26;6.03;;;5.73;;
438;SDS011;206;48.782;9.252;2022-09-24T15:55:54;8.53;;;7.37;;
438;SDS011;206;48.782;9.252;2022-09-24T15:58:23;7.47;;;6.93;;
438;SDS011;206;48.782;9.252;2022-09-24T16:00:49;6.60;;;6.20;;
438;SDS011;206;48.782;9.252;2022-09-24T16:03:19;8.00;;;6.83;;
438;SDS011;206;48.782;9.252;2022-09-24T16:05:52;7.13;;;6.73;;
438;SDS011;206;48.782;9.252;2022-09-24T16:08:19;7.27;;;6.87;;
438;SDS011;206;48.782;9.252;2022-09-24T16:10:44;7.13;;;6.57;;
438;SDS011;206;48.782;9.252;2022-09-24T16:13:11;11.60;;;7.00;;
438;SDS011;206;48.782;9.252;2022-09-24T16:15:38;6.50;;;6.10;;
438;SDS011;206;48.782;9.252;2022-09-24T16:18:04;7.50;;;7.13;;
438;SDS011;206;48.782;9.252;2022-09-24T16:20:30;7.73;;;7.20;;
438;SDS011;206;48.782;9.252;2022-09-24T16:22:56;9.40;;;8.67;;
438;SDS011;206;48.782;9.252;2022-09-24T16:25:22;9.73;;;8.30;;
438;SDS011;206;48.782;9.252;2022-09-24T16:27:47;9.00;;;8.50;;
438;SDS011;206;48.782;9.252;2022-09-24T16:30:14;9.53;;;9.03;;
438;SDS011;206;48.782;9.252;2022-09-24T16:32:41;14.13;;;10.97;;
438;SDS011;206;48.782;9.252;2022-09-24T16:35:06;11.07;;;9.63;;
438;SDS011;206;48.782;9.252;2022-09-24T16:37:35;11.30;;;10.43;;
438;SDS011;206;48.782;9.252;2022-09-24T16:40:01;11.97;;;10.97;;
438;SDS011;206;48.782;9.252;2022-09-24T16:42:27;12.30;;;11.70;;
438;SDS011;206;48.782;9.252;2022-09-24T16:44:52;11.43;;;9.00;;
438;SDS011;206;48.782;9.252;2022-09-24T16:47:18;11.07;;;10.40;;
438;SDS011;206;48.782;9.252;2022-09-24T16:49:44;8.50;;;7.27;;
438;SDS011;206;48.782;9.252;2022-09-24T16:52:10;6.43;;;6.03;;
438;SDS011;206;48.782;9.252;2022-09-24T16:54:36;6.53;;;5.70;;
438;SDS011;206;48.782;9.252;2022-09-24T16:57:02;7.10;;;6.70;;
438;SDS011;206;48.782;9.252;2022-09-24T16:59:27;6.43;;;6.03;;
438;SDS011;206;48.782;9.252;2022-09-24T17:01:53;7.13;;;6.67;;
438;SDS011;206;48.782;9.252;2022-09-24T17:04:18;5.43;;;5.13;;
438;SDS011;206;48.782;9.252;2022-09-24T17:06:44;7.00;;;6.60;;
438;SDS011;206;48.782;9.252;2022-09-24T17:09:10;5.57;;;5.27;;
438;SDS011;206;48.782;9.252;2022-09-24T17:11:55;9.53;;;8.03;;
438;SDS011;206;48.782;9.252;2022-09-24T17:14:21;8.57;;;8.07;;
438;SDS011;206;48.782;9.252;2022-09-24T17:16:47;8.83;;;8.33;;
438;SDS011;206;48.782;9.252;2022-09-24T17:19:13;10.63;;;7.97;;
438;SDS011;206;48.782;9.252;2022-09-24T17:21:40;8.87;;;8.37;;
438;SDS011;206;48.782;9.252;2022-09-24T17:24:07;11.20;;;9.83;;
438;SDS011;206;48.782;9.252;2022-09-24T17:26:34;10.93;;;9.40;;
438;SDS011;206;48.782;9.252;2022-09-24T17:28:59;9.50;;;8.90;;
438;SDS011;206;48.782;9.252;2022-09-24T17:31:25;10.77;;;8.77;;
438;SDS011;206;48.782;9.252;2022-09-24T17:33:58;10.13;;;9.63;;
438;SDS011;206;48.782;9.252;2022-09-24T17:36:26;9.90;;;9.40;;
438;SDS011;206;48.782;9.252;2022-09-24T17:38:53;11.10;;;10.00;;